Time;durP1;ratioP1;P1;durP2;ratioP2;P2;SDS_P1;SDS_P2;PMS_P1;PMS_P2;Temp;Humidity;BMP_temperature;BMP_pressure;BME280_temperature;BME280_humidity;BME280_pressure;Samples;Min_cycle;Max_cycle;Signal;HPM_P1;HPM_P2
2022/02/25 00:02:38;;;;;;;1.37;0.40;;;;;;;;;;6161908;23;20831;-84
2022/02/25 00:05:43;;;;;;;0.50;0.50;;;;;;;;;;6174826;23;20576;-84
2022/02/25 00:08:47;;;;;;;0.50;0.47;;;;;;;;;;6162154;23;20504;-84
2022/02/25 00:11:52;;;;;;;0.83;0.50;;;;;;;;;;6162370;23;20501;-84
2022/02/25 00:14:56;;;;;;;1.00;0.40;;;;;;;;;;6143787;23;20508;-84
2022/02/25 00:18:00;;;;;;;1.00;0.40;;;;;;;;;;6152465;23;20548;-84
2022/02/25 00:21:04;;;;;;;1.67;0.50;;;;;;;;;;6161715;23;20516;-84
2022/02/25 00:24:08;;;;;;;0.50;0.50;;;;;;;;;;6161380;23;20564;-84
2022/02/25 00:27:13;;;;;;;0.43;0.40;;;;;;;;;;6134863;23;20548;-84
2022/02/25 00:30:17;;;;;;;1.57;0.60;;;;;;;;;;6152368;23;20544;-84
2022/02/25 00:33:22;;;;;;;0.70;0.60;;;;;;;;;;6168454;23;20548;-84
2022/02/25 00:36:26;;;;;;;0.70;0.50;;;;;;;;;;6138219;23;20580;-84
2022/02/25 00:39:30;;;;;;;1.57;0.70;;;;;;;;;;6161947;23;20501;-84
2022/02/25 00:42:34;;;;;;;1.20;0.47;;;;;;;;;;6161513;23;20517;-85
2022/02/25 00:45:38;;;;;;;2.10;0.60;;;;;;;;;;6157678;23;20588;-84
2022/02/25 00:48:43;;;;;;;2.13;0.50;;;;;;;;;;6178524;23;21052;-84
2022/02/25 00:51:47;;;;;;;1.80;0.50;;;;;;;;;;6161711;23;20500;-84
2022/02/25 00:54:51;;;;;;;2.63;0.60;;;;;;;;;;6161244;23;20501;-84
2022/02/25 00:57:57;;;;;;;1.13;0.57;;;;;;;;;;6178345;23;20512;-84
2022/02/25 01:01:02;;;;;;;1.80;0.60;;;;;;;;;;6161875;23;20504;-84
2022/02/25 01:04:06;;;;;;;1.70;0.50;;;;;;;;;;6162005;23;20560;-84
2022/02/25 01:07:10;;;;;;;1.70;0.57;;;;;;;;;;6178479;23;20501;-84
2022/02/25 01:10:17;;;;;;;1.03;0.67;;;;;;;;;;6161535;23;20517;-84
2022/02/25 01:13:22;;;;;;;1.10;0.50;;;;;;;;;;6151400;23;20544;-84
2022/02/25 01:16:26;;;;;;;2.27;0.50;;;;;;;;;;6137459;23;20580;-84
2022/02/25 01:19:30;;;;;;;1.67;0.80;;;;;;;;;;6145431;23;20512;-84
2022/02/25 01:22:36;;;;;;;0.50;0.50;;;;;;;;;;6161937;23;20505;-85
2022/02/25 01:25:40;;;;;;;3.93;0.80;;;;;;;;;;6157384;23;20568;-84
2022/02/25 01:28:45;;;;;;;0.63;0.57;;;;;;;;;;6144711;23;21012;-84
2022/02/25 01:31:49;;;;;;;1.63;0.70;;;;;;;;;;6161633;23;20500;-84
2022/02/25 01:34:54;;;;;;;0.83;0.50;;;;;;;;;;6143548;23;20512;-84
2022/02/25 01:37:58;;;;;;;0.97;0.43;;;;;;;;;;6161623;23;20807;-84
2022/02/25 01:41:02;;;;;;;0.73;0.50;;;;;;;;;;6161406;23;20508;-84
2022/02/25 01:44:19;;;;;;;3.90;0.53;;;;;;;;;;6151625;23;20925;-84
2022/02/25 01:47:23;;;;;;;3.00;0.70;;;;;;;;;;6144541;23;20505;-84
2022/02/25 01:50:27;;;;;;;0.93;0.50;;;;;;;;;;6168072;23;20560;-84
2022/02/25 01:53:31;;;;;;;4.23;0.83;;;;;;;;;;6161288;23;20509;-84
2022/02/25 01:56:37;;;;;;;1.57;0.50;;;;;;;;;;6134488;23;20583;-84
2022/02/25 01:59:42;;;;;;;1.10;0.50;;;;;;;;;;6151369;23;21076;-84
2022/02/25 02:02:46;;;;;;;1.03;0.70;;;;;;;;;;6151422;23;20560;-84
2022/02/25 02:05:51;;;;;;;1.63;0.90;;;;;;;;;;6156429;23;21123;-84
2022/02/25 02:08:55;;;;;;;5.07;0.87;;;;;;;;;;6161854;23;20841;-84
2022/02/25 02:12:00;;;;;;;3.57;0.63;;;;;;;;;;6144848;23;20500;-84
2022/02/25 02:15:04;;;;;;;1.20;0.70;;;;;;;;;;6159820;23;20622;-84
2022/02/25 02:18:09;;;;;;;0.90;0.73;;;;;;;;;;6145548;23;20512;-84
2022/02/25 02:21:13;;;;;;;2.80;0.73;;;;;;;;;;6146986;23;20504;-84
2022/02/25 02:24:19;;;;;;;1.93;0.70;;;;;;;;;;6146068;23;20568;-84
2022/02/25 02:28:17;;;;;;;1.63;0.70;;;;;;;;;;6163194;23;20501;-84
2022/02/25 02:30:49;;;;;;;0.60;0.60;;;;;;;;;;6162949;23;21020;-84
2022/02/25 02:33:53;;;;;;;1.00;0.70;;;;;;;;;;6162779;23;20509;-84
2022/02/25 02:36:57;;;;;;;1.33;0.73;;;;;;;;;;6153170;23;20580;-84
2022/02/25 02:40:03;;;;;;;1.23;0.60;;;;;;;;;;6136549;23;20854;-84
2022/02/25 02:43:10;;;;;;;1.63;1.00;;;;;;;;;;6179896;23;20513;-84
2022/02/25 02:46:14;;;;;;;1.93;0.73;;;;;;;;;;6135795;23;20588;-84
2022/02/25 02:49:18;;;;;;;1.03;0.90;;;;;;;;;;6153123;23;20551;-84
2022/02/25 02:52:23;;;;;;;1.63;0.70;;;;;;;;;;6163216;23;20805;-84
2022/02/25 02:55:27;;;;;;;1.70;0.73;;;;;;;;;;6142723;23;20567;-84
2022/02/25 02:58:31;;;;;;;1.60;0.80;;;;;;;;;;6162587;23;20516;-85
2022/02/25 03:01:35;;;;;;;1.77;1.03;;;;;;;;;;6145670;23;20512;-84
2022/02/25 03:04:39;;;;;;;3.33;1.00;;;;;;;;;;6162113;23;20568;-84
2022/02/25 03:07:45;;;;;;;1.20;0.77;;;;;;;;;;6145236;23;20516;-84
2022/02/25 03:10:51;;;;;;;0.97;0.87;;;;;;;;;;6162605;23;20505;-84
2022/02/25 03:13:58;;;;;;;0.73;0.63;;;;;;;;;;6162511;23;21041;-84
2022/02/25 03:17:04;;;;;;;2.07;0.80;;;;;;;;;;6152842;23;20572;-84
2022/02/25 03:20:10;;;;;;;0.93;0.70;;;;;;;;;;6179340;23;20500;-84
2022/02/25 03:23:14;;;;;;;2.53;1.00;;;;;;;;;;6145654;23;20508;-84
2022/02/25 03:26:18;;;;;;;1.93;0.80;;;;;;;;;;6138652;23;20568;-84
2022/02/25 03:29:23;;;;;;;0.97;0.80;;;;;;;;;;6178578;23;20513;-84
2022/02/25 03:32:27;;;;;;;1.37;0.93;;;;;;;;;;6162487;23;20508;-84
2022/02/25 03:35:32;;;;;;;2.67;1.30;;;;;;;;;;6158688;23;20572;-84
2022/02/25 03:38:36;;;;;;;3.73;1.20;;;;;;;;;;6152181;23;20560;-84
2022/02/25 03:41:40;;;;;;;1.27;0.90;;;;;;;;;;6152532;23;20552;-84
2022/02/25 03:44:45;;;;;;;1.43;0.90;;;;;;;;;;6169612;23;20599;-84
2022/02/25 03:47:49;;;;;;;2.40;0.90;;;;;;;;;;6161824;23;20501;-84
2022/02/25 03:50:53;;;;;;;3.13;1.00;;;;;;;;;;6162385;23;20500;-84
2022/02/25 03:53:57;;;;;;;1.60;0.83;;;;;;;;;;6161931;23;20827;-84
2022/02/25 03:57:01;;;;;;;2.07;0.90;;;;;;;;;;6135576;23;20583;-84
2022/02/25 04:00:08;;;;;;;2.20;0.90;;;;;;;;;;6152140;23;20548;-84
2022/02/25 04:03:18;;;;;;;2.30;1.00;;;;;;;;;;6161916;23;20517;-84
2022/02/25 04:06:23;;;;;;;3.83;1.10;;;;;;;;;;6155212;23;20572;-84
2022/02/25 04:09:27;;;;;;;2.83;1.20;;;;;;;;;;6152204;23;20544;-84
2022/02/25 04:12:31;;;;;;;4.67;1.00;;;;;;;;;;6161809;23;20501;-84
2022/02/25 04:15:37;;;;;;;2.93;1.10;;;;;;;;;;6157983;23;20576;-84
2022/02/25 04:18:42;;;;;;;2.57;1.13;;;;;;;;;;6134897;23;20560;-84
2022/02/25 04:21:46;;;;;;;2.00;0.83;;;;;;;;;;6161487;23;20501;-84
2022/02/25 04:24:50;;;;;;;1.10;1.00;;;;;;;;;;6143737;23;20882;-84
2022/02/25 04:27:55;;;;;;;1.33;0.83;;;;;;;;;;6161419;23;20516;-84
2022/02/25 04:30:59;;;;;;;2.03;0.90;;;;;;;;;;6152097;23;20552;-84
2022/02/25 04:34:03;;;;;;;4.07;1.10;;;;;;;;;;6178843;23;20808;-84
2022/02/25 04:37:07;;;;;;;3.43;1.30;;;;;;;;;;6152460;23;20572;-84
2022/02/25 04:40:12;;;;;;;2.17;1.10;;;;;;;;;;6151762;23;20552;-84
2022/02/25 04:43:16;;;;;;;1.83;1.10;;;;;;;;;;6162137;23;20501;-84
2022/02/25 04:46:25;;;;;;;3.37;1.10;;;;;;;;;;6166540;23;20642;-88
2022/02/25 04:49:30;;;;;;;2.63;1.30;;;;;;;;;;6174266;23;20508;-88
2022/02/25 04:52:34;;;;;;;1.70;1.07;;;;;;;;;;6174334;23;20508;-88
2022/02/25 04:55:39;;;;;;;1.60;1.40;;;;;;;;;;6163818;23;20576;-88
2022/02/25 04:58:44;;;;;;;2.70;1.20;;;;;;;;;;6161289;23;20509;-88
2022/02/25 05:01:48;;;;;;;3.70;1.30;;;;;;;;;;6161361;23;20822;-88
2022/02/25 05:04:57;;;;;;;1.10;1.00;;;;;;;;;;6161257;23;20874;-88
2022/02/25 05:08:02;;;;;;;1.00;0.70;;;;;;;;;;6161290;23;20512;-87
2022/02/25 05:11:13;;;;;;;2.43;1.20;;;;;;;;;;6144349;23;20505;-88
2022/02/25 05:21:34;;;;;;;5.07;1.10;;;;;;;;;;6161229;23;20807;-88
2022/02/25 05:24:40;;;;;;;5.93;1.30;;;;;;;;;;6160678;23;20568;-88
2022/02/25 05:27:44;;;;;;;2.63;1.10;;;;;;;;;;6161068;23;20525;-88
2022/02/25 05:30:51;;;;;;;4.13;1.20;;;;;;;;;;6161081;23;20509;-88
2022/02/25 05:33:57;;;;;;;2.93;0.90;;;;;;;;;;6161746;23;20525;-85
2022/02/25 05:37:07;;;;;;;5.20;1.10;;;;;;;;;;6139071;23;20576;-85
2022/02/25 05:40:14;;;;;;;1.50;1.10;;;;;;;;;;6180427;23;20512;-84
2022/02/25 05:43:18;;;;;;;3.37;1.27;;;;;;;;;;6147185;23;20520;-85
2022/02/25 05:46:27;;;;;;;2.10;1.20;;;;;;;;;;6154842;23;20612;-85
2022/02/25 05:49:31;;;;;;;2.53;0.93;;;;;;;;;;6165032;23;20521;-84
2022/02/25 05:52:36;;;;;;;1.80;1.10;;;;;;;;;;6165145;23;20504;-84
2022/02/25 05:55:40;;;;;;;1.50;1.20;;;;;;;;;;6164990;23;20571;-84
2022/02/25 05:58:44;;;;;;;3.13;1.30;;;;;;;;;;6167746;23;20500;-84
2022/02/25 06:01:49;;;;;;;2.00;1.33;;;;;;;;;;6150649;23;20516;-84
2022/02/25 06:04:54;;;;;;;5.03;1.50;;;;;;;;;;6166063;23;20556;-85
2022/02/25 06:08:00;;;;;;;3.03;1.10;;;;;;;;;;6166254;23;21029;-85
2022/02/25 06:11:06;;;;;;;6.33;1.40;;;;;;;;;;6166578;23;20816;-85
2022/02/25 06:14:11;;;;;;;3.30;1.10;;;;;;;;;;6166459;23;20520;-85
2022/02/25 06:17:20;;;;;;;2.97;1.10;;;;;;;;;;6157203;23;20584;-85
2022/02/25 06:20:24;;;;;;;1.83;1.10;;;;;;;;;;6155907;23;20552;-85
2022/02/25 06:23:28;;;;;;;2.50;1.10;;;;;;;;;;6155222;23;20874;-85
2022/02/25 06:26:33;;;;;;;6.33;3.70;;;;;;;;;;6155849;23;20611;-85
2022/02/25 06:29:37;;;;;;;6.37;3.47;;;;;;;;;;6155055;23;20564;-85
2022/02/25 06:32:41;;;;;;;2.50;1.40;;;;;;;;;;6164752;23;20512;-85
2022/02/25 06:35:46;;;;;;;4.40;2.40;;;;;;;;;;6162368;23;20584;-85
2022/02/25 06:38:50;;;;;;;3.00;1.70;;;;;;;;;;6138631;23;20556;-85
2022/02/25 06:41:54;;;;;;;2.27;1.50;;;;;;;;;;6138727;23;20559;-85
2022/02/25 06:44:59;;;;;;;2.37;1.50;;;;;;;;;;6156134;23;20600;-86
2022/02/25 06:48:04;;;;;;;2.83;1.40;;;;;;;;;;6165845;23;20509;-85
2022/02/25 06:51:09;;;;;;;1.77;1.17;;;;;;;;;;6148649;23;20505;-85
2022/02/25 06:54:13;;;;;;;2.83;1.33;;;;;;;;;;6165504;23;20508;-85
2022/02/25 06:57:17;;;;;;;1.23;1.13;;;;;;;;;;6172721;23;20575;-84
2022/02/25 07:00:21;;;;;;;4.03;1.20;;;;;;;;;;6165079;23;21028;-84
2022/02/25 07:03:25;;;;;;;3.20;1.13;;;;;;;;;;6164870;23;20504;-84
2022/02/25 07:06:30;;;;;;;5.43;1.17;;;;;;;;;;6158381;23;20611;-84
2022/02/25 07:09:34;;;;;;;4.90;1.30;;;;;;;;;;6182438;23;20512;-83
2022/02/25 07:12:38;;;;;;;11.13;2.97;;;;;;;;;;6147865;23;20509;-83
2022/02/25 07:15:42;;;;;;;2.57;1.40;;;;;;;;;;6146236;23;21128;-84
2022/02/25 07:18:47;;;;;;;3.03;1.20;;;;;;;;;;6165316;23;20504;-86
2022/02/25 07:21:52;;;;;;;3.70;1.30;;;;;;;;;;6165639;23;20505;-85
2022/02/25 07:24:58;;;;;;;2.20;0.93;;;;;;;;;;6182983;23;20505;-84
2022/02/25 07:28:05;;;;;;;4.43;1.10;;;;;;;;;;6165668;23;20509;-84
2022/02/25 07:31:09;;;;;;;3.23;1.10;;;;;;;;;;6165074;23;20508;-85
2022/02/25 07:34:14;;;;;;;6.43;1.27;;;;;;;;;;6166240;23;20505;-84
2022/02/25 07:37:20;;;;;;;6.10;1.23;;;;;;;;;;6155994;23;20576;-84
2022/02/25 07:40:24;;;;;;;3.83;1.80;;;;;;;;;;6147803;23;21037;-85
2022/02/25 07:43:29;;;;;;;9.60;7.77;;;;;;;;;;6180954;23;20512;-84
2022/02/25 07:46:34;;;;;;;4.13;1.93;;;;;;;;;;6173698;23;20627;-85
2022/02/25 07:49:38;;;;;;;4.63;2.47;;;;;;;;;;6154715;23;20563;-84
2022/02/25 07:52:43;;;;;;;4.63;2.00;;;;;;;;;;6165075;23;20509;-84
2022/02/25 07:55:47;;;;;;;2.77;1.50;;;;;;;;;;6177552;23;20572;-84
2022/02/25 07:58:50;;;;;;;6.03;1.30;;;;;;;;;;6164260;23;20505;-84
2022/02/25 08:01:54;;;;;;;2.43;1.30;;;;;;;;;;6165042;23;20509;-85
2022/02/25 08:04:59;;;;;;;3.67;1.10;;;;;;;;;;6166672;23;21016;-85
2022/02/25 08:08:04;;;;;;;2.73;1.13;;;;;;;;;;6155295;23;20556;-85
2022/02/25 08:11:08;;;;;;;4.23;1.00;;;;;;;;;;6182594;23;21029;-85
2022/02/25 08:14:12;;;;;;;2.33;0.93;;;;;;;;;;6148555;23;20505;-85
2022/02/25 08:17:17;;;;;;;5.87;1.10;;;;;;;;;;6155302;23;20571;-84
2022/02/25 08:20:21;;;;;;;6.90;1.63;;;;;;;;;;6163893;23;20508;-85
2022/02/25 08:23:26;;;;;;;4.87;1.00;;;;;;;;;;6154500;23;20556;-85
2022/02/25 08:26:32;;;;;;;2.60;0.90;;;;;;;;;;6154466;23;20611;-85
2022/02/25 08:29:36;;;;;;;3.17;1.03;;;;;;;;;;6148289;23;20608;-85
2022/02/25 08:32:53;;;;;;;2.60;0.73;;;;;;;;;;6164579;23;20520;-85
2022/02/25 08:35:58;;;;;;;3.57;0.90;;;;;;;;;;6160208;23;20184;-85
2022/02/25 08:39:03;;;;;;;2.60;1.00;;;;;;;;;;6154928;23;20628;-85
2022/02/25 08:42:11;;;;;;;5.13;1.00;;;;;;;;;;6155722;23;20169;-85
2022/02/25 08:45:16;;;;;;;3.77;1.60;;;;;;;;;;6162630;23;20157;-85
2022/02/25 08:48:20;;;;;;;6.10;1.60;;;;;;;;;;6164187;23;20157;-86
2022/02/25 08:51:26;;;;;;;5.40;1.30;;;;;;;;;;6179573;23;20586;-85
2022/02/25 08:54:37;;;;;;;4.97;1.17;;;;;;;;;;6162625;23;20157;-86
2022/02/25 08:57:43;;;;;;;5.47;1.20;;;;;;;;;;6162644;23;20153;-86
2022/02/25 09:00:49;;;;;;;10.40;1.43;;;;;;;;;;6152709;23;20172;-86
2022/02/25 09:03:53;;;;;;;5.83;1.23;;;;;;;;;;6152241;23;20173;-86
2022/02/25 09:06:59;;;;;;;3.77;1.13;;;;;;;;;;6154079;23;20204;-86
2022/02/25 09:10:08;;;;;;;5.53;1.03;;;;;;;;;;6164187;23;20499;-86
2022/02/25 09:13:13;;;;;;;4.97;1.10;;;;;;;;;;6147314;23;20153;-86
2022/02/25 09:16:17;;;;;;;7.67;1.40;;;;;;;;;;6141881;23;20184;-86
2022/02/25 09:19:21;;;;;;;4.43;1.10;;;;;;;;;;6154185;23;20487;-86
2022/02/25 09:22:25;;;;;;;2.73;0.93;;;;;;;;;;6164830;23;20152;-85
2022/02/25 09:25:30;;;;;;;6.00;1.30;;;;;;;;;;6178943;23;20188;-85
2022/02/25 09:28:36;;;;;;;3.87;0.90;;;;;;;;;;6164486;23;20160;-86
2022/02/25 09:31:40;;;;;;;5.63;1.40;;;;;;;;;;6181951;23;20157;-86
2022/02/25 09:34:44;;;;;;;5.20;1.40;;;;;;;;;;6147165;23;20152;-86
2022/02/25 09:37:49;;;;;;;6.20;2.10;;;;;;;;;;6180560;23;20149;-86
2022/02/25 09:40:52;;;;;;;3.57;1.10;;;;;;;;;;6147233;23;20152;-86
2022/02/25 09:43:57;;;;;;;5.57;1.20;;;;;;;;;;6164259;23;20471;-86
2022/02/25 09:47:02;;;;;;;4.83;1.30;;;;;;;;;;6155650;23;20204;-86
2022/02/25 09:50:12;;;;;;;2.87;1.20;;;;;;;;;;6137959;23;20180;-86
2022/02/25 09:53:16;;;;;;;6.27;1.90;;;;;;;;;;6164090;23;20153;-86
2022/02/25 09:56:23;;;;;;;4.57;1.40;;;;;;;;;;6158679;23;20499;-86
2022/02/25 09:59:31;;;;;;;6.37;1.77;;;;;;;;;;6153748;23;20622;-86
2022/02/25 10:02:45;;;;;;;7.07;4.17;;;;;;;;;;6132754;23;20165;-86
2022/02/25 10:05:49;;;;;;;6.43;3.53;;;;;;;;;;6143421;23;20192;-86
2022/02/25 10:08:55;;;;;;;12.53;7.53;;;;;;;;;;6164051;23;20161;-86
2022/02/25 10:12:10;;;;;;;4.37;1.73;;;;;;;;;;6180775;23;20153;-86
2022/02/25 10:15:27;;;;;;;3.80;1.90;;;;;;;;;;6153683;23;20173;-86
2022/02/25 10:18:33;;;;;;;8.47;3.37;;;;;;;;;;6163789;23;20154;-86
2022/02/25 10:21:37;;;;;;;7.43;3.37;;;;;;;;;;6163818;23;20161;-86
2022/02/25 10:25:06;;;;;;;4.77;1.20;;;;;;;;;;6146582;23;20471;-86
2022/02/25 10:28:19;;;;;;;5.73;1.17;;;;;;;;;;6164578;23;20148;-84
2022/02/25 10:31:36;;;;;;;3.97;1.20;;;;;;;;;;6131595;23;20166;-86
2022/02/25 10:34:41;;;;;;;6.17;1.23;;;;;;;;;;6164043;23;20157;-86
2022/02/25 10:38:07;;;;;;;8.07;1.30;;;;;;;;;;6181353;23;20149;-86
2022/02/25 10:41:12;;;;;;;2.13;1.10;;;;;;;;;;6164234;23;20157;-86
2022/02/25 10:44:41;;;;;;;5.03;1.20;;;;;;;;;;6155806;23;20177;-86
2022/02/25 10:47:46;;;;;;;3.53;0.97;;;;;;;;;;6155580;23;20216;-87
2022/02/25 10:50:52;;;;;;;5.83;1.13;;;;;;;;;;6182481;23;20172;-88
2022/02/25 10:53:59;;;;;;;3.77;1.00;;;;;;;;;;6175476;23;20156;-89
2022/02/25 10:57:12;;;;;;;4.93;1.50;;;;;;;;;;6156320;23;20184;-89
2022/02/25 11:00:18;;;;;;;5.83;1.33;;;;;;;;;;6162279;23;20158;-88
2022/02/25 11:03:22;;;;;;;6.07;1.10;;;;;;;;;;6179303;23;20153;-88
2022/02/25 11:06:28;;;;;;;4.13;0.93;;;;;;;;;;6158581;23;20506;-89
2022/02/25 11:09:32;;;;;;;3.73;0.97;;;;;;;;;;6162212;23;20161;-88
2022/02/25 11:12:39;;;;;;;3.83;1.03;;;;;;;;;;6151843;23;20169;-88
2022/02/25 11:15:43;;;;;;;6.10;1.17;;;;;;;;;;6151737;23;20169;-89
2022/02/25 11:18:49;;;;;;;3.90;1.20;;;;;;;;;;6145345;23;20154;-88
2022/02/25 11:21:54;;;;;;;4.63;1.00;;;;;;;;;;6144990;23;20463;-88
2022/02/25 11:24:59;;;;;;;3.80;1.33;;;;;;;;;;6145419;23;20598;-88
2022/02/25 11:28:05;;;;;;;5.93;1.20;;;;;;;;;;6151207;23;20192;-89
2022/02/25 11:31:26;;;;;;;5.27;1.27;;;;;;;;;;6152382;23;20173;-88
2022/02/25 11:34:31;;;;;;;2.93;1.07;;;;;;;;;;6195498;23;20162;-88
2022/02/25 11:37:47;;;;;;;7.30;1.17;;;;;;;;;;6135757;23;20499;-88
2022/02/25 11:40:57;;;;;;;6.90;1.57;;;;;;;;;;6161408;23;20153;-88
2022/02/25 11:44:13;;;;;;;5.27;1.43;;;;;;;;;;6161013;23;20160;-88
2022/02/25 11:47:35;;;;;;;7.63;1.20;;;;;;;;;;6137405;23;20197;-87
2022/02/25 11:50:39;;;;;;;6.17;1.17;;;;;;;;;;6177841;23;20157;-88
2022/02/25 11:53:45;;;;;;;3.57;1.13;;;;;;;;;;6178397;23;20157;-88
2022/02/25 11:56:56;;;;;;;5.13;1.20;;;;;;;;;;6173456;23;20188;-88
2022/02/25 12:00:01;;;;;;;8.80;1.13;;;;;;;;;;6178137;23;20153;-88
2022/02/25 12:03:09;;;;;;;6.40;2.00;;;;;;;;;;6151449;23;20614;-88
2022/02/25 12:06:26;;;;;;;6.33;1.60;;;;;;;;;;6141822;23;20193;-88
2022/02/25 12:09:55;;;;;;;4.47;1.00;;;;;;;;;;6161409;23;20157;-88
2022/02/25 12:13:03;;;;;;;6.20;1.53;;;;;;;;;;6161395;23;20153;-88
2022/02/25 12:16:31;;;;;;;6.97;2.57;;;;;;;;;;6159083;23;20188;-88
2022/02/25 12:19:35;;;;;;;5.60;2.10;;;;;;;;;;6144738;23;20157;-88
2022/02/25 12:23:01;;;;;;;6.30;1.70;;;;;;;;;;5010054;28;20822;-88
2022/02/25 12:26:07;;;;;;;2.87;1.03;;;;;;;;;;5007376;28;20228;-88
2022/02/25 12:29:17;;;;;;;4.67;1.30;;;;;;;;;;4984913;28;20182;-88
2022/02/25 12:32:43;;;;;;;2.27;1.10;;;;;;;;;;4985483;28;20629;-88
2022/02/25 12:35:49;;;;;;;2.73;1.13;;;;;;;;;;5041830;23;20224;-85
2022/02/25 12:39:09;;;;;;;7.23;1.10;;;;;;;;;;5018713;28;20555;-85
2022/02/25 12:42:15;;;;;;;2.87;1.30;;;;;;;;;;5018698;28;20205;-85
2022/02/25 12:45:26;;;;;;;5.10;1.20;;;;;;;;;;5018611;28;20220;-85
2022/02/25 12:48:31;;;;;;;5.30;1.53;;;;;;;;;;5018230;28;20564;-85
2022/02/25 12:51:35;;;;;;;3.83;1.60;;;;;;;;;;4987598;28;20197;-85
2022/02/25 12:54:40;;;;;;;3.87;1.20;;;;;;;;;;5022651;28;20220;-85
2022/02/25 12:57:51;;;;;;;2.47;1.07;;;;;;;;;;5041442;28;20177;-85
2022/02/25 13:00:56;;;;;;;4.00;1.10;;;;;;;;;;5029062;28;20212;-85
2022/02/25 13:04:15;;;;;;;4.63;1.47;;;;;;;;;;5006513;28;20193;-85
2022/02/25 13:07:25;;;;;;;2.87;1.20;;;;;;;;;;5009397;28;20193;-85
2022/02/25 13:10:29;;;;;;;7.27;1.50;;;;;;;;;;5014449;28;20185;-85
2022/02/25 13:13:34;;;;;;;3.17;1.10;;;;;;;;;;5018295;28;20524;-85
2022/02/25 13:16:38;;;;;;;6.07;1.00;;;;;;;;;;5029081;28;20189;-85
2022/02/25 13:19:49;;;;;;;5.07;1.13;;;;;;;;;;5015528;28;20189;-85
2022/02/25 13:22:53;;;;;;;4.70;1.37;;;;;;;;;;5029207;28;20201;-85
2022/02/25 13:25:59;;;;;;;6.23;1.83;;;;;;;;;;5029233;28;20217;-85
2022/02/25 13:29:07;;;;;;;3.43;1.30;;;;;;;;;;5017453;28;20204;-85
2022/02/25 13:32:12;;;;;;;3.73;1.17;;;;;;;;;;4998618;28;20198;-83
2022/02/25 13:35:18;;;;;;;2.80;1.00;;;;;;;;;;4998451;28;20233;-83
2022/02/25 13:38:28;;;;;;;4.77;1.50;;;;;;;;;;5009052;28;20193;-83
2022/02/25 13:41:33;;;;;;;6.10;1.27;;;;;;;;;;5006760;28;20576;-83
2022/02/25 13:44:38;;;;;;;4.23;1.50;;;;;;;;;;5018659;28;20225;-83
2022/02/25 13:54:44;;;;;;;6.53;1.07;;;;;;;;;;5007610;28;20691;-83
2022/02/25 13:57:59;;;;;;;6.67;1.20;;;;;;;;;;5006833;28;20197;-83
2022/02/25 14:01:15;;;;;;;5.93;0.97;;;;;;;;;;5007142;28;20181;-83
2022/02/25 14:04:22;;;;;;;3.97;0.97;;;;;;;;;;5018449;28;20217;-83
2022/02/25 14:07:32;;;;;;;4.30;1.37;;;;;;;;;;4996392;28;20177;-84
2022/02/25 14:10:37;;;;;;;2.63;0.90;;;;;;;;;;5004966;28;20190;-83
2022/02/25 14:13:45;;;;;;;4.40;1.07;;;;;;;;;;5008350;28;20174;-83
2022/02/25 14:16:49;;;;;;;8.17;3.13;;;;;;;;;;4996648;28;20178;-83
2022/02/25 14:20:02;;;;;;;2.13;0.87;;;;;;;;;;5016168;28;20205;-83
2022/02/25 14:23:10;;;;;;;1.53;1.00;;;;;;;;;;5017681;28;20225;-83
2022/02/25 14:26:25;;;;;;;3.70;1.60;;;;;;;;;;5017260;28;20543;-83
2022/02/25 14:29:29;;;;;;;3.30;1.53;;;;;;;;;;5028973;28;20197;-83
2022/02/25 14:32:34;;;;;;;4.57;1.70;;;;;;;;;;4996894;28;20215;-83
2022/02/25 14:35:43;;;;;;;5.67;1.23;;;;;;;;;;4995825;28;20230;-83
2022/02/25 14:38:54;;;;;;;3.33;1.10;;;;;;;;;;5004988;28;20644;-83
2022/02/25 14:41:58;;;;;;;8.10;3.23;;;;;;;;;;5005488;28;20652;-83
2022/02/25 14:45:04;;;;;;;14.10;5.07;;;;;;;;;;4993376;28;20217;-83
2022/02/25 14:48:09;;;;;;;62.17;21.50;;;;;;;;;;4993325;28;20198;-83
2022/02/25 14:51:17;;;;;;;27.33;10.70;;;;;;;;;;4992060;28;20186;-83
2022/02/25 14:54:23;;;;;;;19.43;7.90;;;;;;;;;;5014488;28;20221;-83
2022/02/25 14:57:27;;;;;;;5.67;2.73;;;;;;;;;;5018453;28;20194;-83
2022/02/25 15:00:32;;;;;;;23.57;10.17;;;;;;;;;;4990471;28;20193;-83
2022/02/25 15:03:37;;;;;;;9.77;2.43;;;;;;;;;;5008384;28;20178;-83
2022/02/25 15:06:41;;;;;;;14.17;4.57;;;;;;;;;;5020321;28;20193;-83
2022/02/25 15:09:45;;;;;;;10.90;5.43;;;;;;;;;;5006914;28;20181;-84
2022/02/25 15:12:50;;;;;;;11.57;5.70;;;;;;;;;;5002784;28;20182;-84
2022/02/25 15:15:55;;;;;;;6.57;2.43;;;;;;;;;;5002979;28;20213;-84
2022/02/25 15:18:59;;;;;;;3.40;1.60;;;;;;;;;;5002704;28;20185;-84
2022/02/25 15:22:05;;;;;;;3.87;1.17;;;;;;;;;;5002719;28;20209;-84
2022/02/25 15:25:11;;;;;;;4.77;1.27;;;;;;;;;;5000724;28;20217;-84
2022/02/25 15:28:15;;;;;;;2.60;0.70;;;;;;;;;;5002348;28;20197;-85
2022/02/25 15:31:19;;;;;;;5.30;1.00;;;;;;;;;;4991340;28;20173;-85
2022/02/25 15:34:23;;;;;;;1.30;0.70;;;;;;;;;;4982899;28;20592;-84
2022/02/25 15:37:27;;;;;;;3.30;1.03;;;;;;;;;;5012797;28;20182;-84
2022/02/25 15:40:31;;;;;;;2.97;0.90;;;;;;;;;;5016215;28;20557;-85
2022/02/25 15:43:36;;;;;;;4.93;1.80;;;;;;;;;;5002073;28;20584;-85
2022/02/25 15:46:40;;;;;;;98.73;53.53;;;;;;;;;;5002245;28;20181;-85
2022/02/25 15:49:44;;;;;;;73.47;42.57;;;;;;;;;;5001014;28;20205;-84
2022/02/25 15:52:49;;;;;;;39.33;27.87;;;;;;;;;;5001496;28;20196;-84
2022/02/25 15:55:53;;;;;;;6.53;4.87;;;;;;;;;;5002520;28;20225;-84
2022/02/25 15:58:57;;;;;;;11.90;7.60;;;;;;;;;;5011884;28;20189;-85
2022/02/25 16:02:01;;;;;;;4.60;3.00;;;;;;;;;;5013182;28;20205;-85
2022/02/25 16:05:06;;;;;;;7.23;2.50;;;;;;;;;;5004261;28;20223;-84
2022/02/25 16:08:10;;;;;;;6.93;1.73;;;;;;;;;;5024466;28;20197;-85
2022/02/25 16:11:15;;;;;;;3.93;1.27;;;;;;;;;;5001852;28;20625;-85
2022/02/25 16:14:20;;;;;;;4.93;1.90;;;;;;;;;;5001498;28;20217;-87
2022/02/25 16:19:02;;;;;;;5.43;1.47;;;;;;;;;;5000545;28;20202;-87
2022/02/25 16:22:07;;;;;;;32.73;15.37;;;;;;;;;;4971110;28;20214;-86
2022/02/25 16:25:14;;;;;;;25.00;13.50;;;;;;;;;;4984209;28;20225;-86
2022/02/25 16:28:19;;;;;;;49.67;27.17;;;;;;;;;;5001407;28;20185;-86
2022/02/25 16:31:24;;;;;;;22.30;15.70;;;;;;;;;;5012575;28;20190;-86
2022/02/25 16:34:28;;;;;;;7.67;3.17;;;;;;;;;;5012329;28;20224;-85
2022/02/25 16:37:32;;;;;;;4.97;2.43;;;;;;;;;;4995417;28;20201;-86
2022/02/25 16:40:37;;;;;;;4.53;1.90;;;;;;;;;;5024337;28;20544;-86
2022/02/25 16:43:41;;;;;;;4.63;1.70;;;;;;;;;;5011893;28;20209;-86
2022/02/25 16:46:45;;;;;;;4.50;1.20;;;;;;;;;;5000993;28;20659;-87
2022/02/25 16:49:49;;;;;;;4.57;0.90;;;;;;;;;;5000727;28;20193;-86
2022/02/25 16:52:53;;;;;;;4.87;2.80;;;;;;;;;;5000744;28;20186;-85
2022/02/25 16:56:01;;;;;;;4.87;1.60;;;;;;;;;;5002009;28;20217;-85
2022/02/25 16:59:06;;;;;;;5.03;1.40;;;;;;;;;;5001194;28;20181;-86
2022/02/25 17:02:13;;;;;;;6.13;1.57;;;;;;;;;;4981768;28;20598;-86
2022/02/25 17:05:18;;;;;;;4.10;1.63;;;;;;;;;;5004202;28;20237;-88
2022/02/25 17:08:22;;;;;;;5.30;1.30;;;;;;;;;;4978264;28;20600;-87
2022/02/25 17:11:26;;;;;;;2.13;1.17;;;;;;;;;;4996066;28;20589;-87
2022/02/25 17:14:30;;;;;;;3.63;1.00;;;;;;;;;;4991296;28;20636;-87
2022/02/25 17:17:34;;;;;;;5.73;1.90;;;;;;;;;;5004530;28;20600;-87
2022/02/25 17:20:38;;;;;;;2.63;1.00;;;;;;;;;;4993389;28;20584;-85
2022/02/25 17:23:43;;;;;;;6.00;1.87;;;;;;;;;;5005531;28;20600;-85
2022/02/25 17:26:47;;;;;;;3.90;2.60;;;;;;;;;;5006223;28;20975;-85
2022/02/25 17:29:51;;;;;;;5.53;3.93;;;;;;;;;;5005337;28;20592;-86
2022/02/25 17:32:55;;;;;;;3.47;2.10;;;;;;;;;;5016354;28;20592;-85
2022/02/25 17:35:59;;;;;;;4.87;2.20;;;;;;;;;;4984904;28;20632;-85
2022/02/25 17:39:04;;;;;;;4.00;2.37;;;;;;;;;;5007635;28;20588;-86
2022/02/25 17:42:09;;;;;;;3.60;1.40;;;;;;;;;;5015670;28;20588;-85
2022/02/25 17:45:13;;;;;;;4.83;1.30;;;;;;;;;;5015975;28;20615;-86
2022/02/25 17:48:19;;;;;;;4.33;1.53;;;;;;;;;;5004331;28;20552;-86
2022/02/25 17:51:23;;;;;;;3.77;1.50;;;;;;;;;;5004059;28;20589;-86
2022/02/25 17:54:27;;;;;;;7.23;3.73;;;;;;;;;;5026637;28;20631;-86
2022/02/25 17:57:31;;;;;;;9.57;6.23;;;;;;;;;;5004198;28;20545;-86
2022/02/25 18:00:36;;;;;;;4.23;3.10;;;;;;;;;;5003310;28;20995;-86
2022/02/25 18:03:40;;;;;;;4.00;3.00;;;;;;;;;;5003677;28;20640;-86
2022/02/25 18:06:44;;;;;;;5.27;4.07;;;;;;;;;;5003537;28;20624;-86
2022/02/25 18:09:48;;;;;;;5.93;3.47;;;;;;;;;;5003526;28;20592;-86
2022/02/25 18:12:52;;;;;;;6.43;3.40;;;;;;;;;;5003728;28;20588;-85
2022/02/25 18:15:57;;;;;;;3.57;2.50;;;;;;;;;;5004077;28;20620;-85
2022/02/25 18:19:01;;;;;;;4.50;1.93;;;;;;;;;;5003602;28;20604;-85
2022/02/25 18:22:05;;;;;;;3.40;2.70;;;;;;;;;;5003417;28;20620;-85
2022/02/25 18:25:09;;;;;;;6.50;2.90;;;;;;;;;;5003592;28;20643;-85
2022/02/25 18:28:14;;;;;;;3.83;2.27;;;;;;;;;;5015465;28;20532;-85
2022/02/25 18:31:18;;;;;;;3.57;2.47;;;;;;;;;;5014953;28;21150;-85
2022/02/25 18:34:23;;;;;;;4.53;3.10;;;;;;;;;;5031691;22;20679;-86
2022/02/25 18:37:28;;;;;;;6.47;3.00;;;;;;;;;;5032078;28;20909;-86
2022/02/25 18:40:32;;;;;;;5.13;2.17;;;;;;;;;;5031158;28;20614;-86
2022/02/25 18:43:36;;;;;;;4.53;2.33;;;;;;;;;;5030594;28;20658;-86
2022/02/25 18:46:40;;;;;;;3.53;1.80;;;;;;;;;;5010726;28;20583;-87
2022/02/25 18:49:44;;;;;;;2.83;1.50;;;;;;;;;;5000409;28;20560;-87
2022/02/25 18:52:48;;;;;;;6.23;1.50;;;;;;;;;;5005473;28;20580;-86